KRYY

Cobb County International-McCollum Field Airport

Atlanta, Georgia, USA
METAR KRYY 171848Z 32007KT 10SM OVC110 21/09 A3024 RMK AO2 SLP960 T02060089
Observed Flight Rules
Oct-17 @ 18:48 UTC (27 minutes ago) Visual Flight Rules
Wind Visibility Clouds
320° at 7 knots 10 miles
  • Overcast at 11,000' AGL
Temperatures Readings
Current 21°C / 70°F
Dewpoint 9°C / 48°F
Humidity 46%
Altimeter 30.24" Hg
Pressure 996 hPa
Elevation 317
METAR KRYY 171848Z 32007KT 10SM OVC110 21/09 A3024 RMK AO2 SLP960 T02060089
Observed Flight Rules
Oct-17 @ 18:48 UTC
(27 minutes ago)
VFR
Wind Visibility
320° at 7 knots 10 miles
Clouds
  • Overcast at 11,000' AGL
Temperature Dewpoint
21°C / 70°F 9°C / 48°F
Humidity Altimeter Pressure
46% 30.24" Hg 996 hPa